01:08 Rennrad Innsbruck ARZ - Radweg - Voels - Hatting - Pettnau - Moetz
Ort Innsbruck Datum 14.06.2017 17:08:24
Kategorie Rennrad
Distanz 40,12 Kilometer Steigung 153,0 Meter Gefälle -96,0 Meter
Gesamt Zeit 01:09:23 Aktiv 01:08:06 Pause 00:01:17
Durchs. Tempo 35,3 km/h Tempo max. 50,3 km/h Tempo min. 20,5 km/h
Kalorien 0 Durchs. HF 131 BPM HF max. 150 BPM
Wetter 28 °C PartClouds Min/Max: 26,4 °C/28,0 °C; Druck: 1013,7 mbar; Rel. Feuchte: 46,7%; Taupunkt: 14,8 °C; Windgeschwindigkeit: 10,2 km/h; Niederschlag: 0,0mm
Ausrüstung Bontrager - RXL Road
Scott - Addict 20
Notiz Innsbruck ARZ - Radweg - Voels - Hatting - Pettnau - Moetz ... trocken, warm, unterschiedlich starker Rückenwind - flott ... garmin connect
Splits
Distanz (km) Gesamt Zeit Split Zeit Split Tempo Split Tempo Höhenprofil (m)
1,00 00:01:52 00:01:52 00:01:53 32,0 -3,44
2,00 00:03:52 00:01:59 00:02:00 30,0 -4,05
3,00 00:05:42 00:01:50 00:01:50 32,6 2,17
4,00 00:07:29 00:01:46 00:01:46 33,9 1,77
5,00 00:09:15 00:01:46 00:01:47 33,7 3,48
6,00 00:11:16 00:02:00 00:02:00 29,9 10,07
7,00 00:12:53 00:01:37 00:01:37 36,9 -4,39
8,00 00:14:35 00:01:41 00:01:42 35,3 1,31
9,00 00:16:11 00:01:36 00:01:36 37,5 3,47
10,00 00:18:08 00:01:56 00:01:57 30,8 15,36
11,00 00:20:08 00:02:00 00:02:00 30,0 11,71
12,00 00:21:32 00:01:23 00:01:23 43,1 -17,77
13,00 00:22:55 00:01:23 00:01:24 43,0 -6,13
14,00 00:24:35 00:01:39 00:01:39 36,2 5,61
15,00 00:26:11 00:01:35 00:01:36 37,6 0,63
16,00 00:27:48 00:01:37 00:01:38 36,8 1,54
17,00 00:29:35 00:01:46 00:01:47 33,7 5,21
18,00 00:31:34 00:01:59 00:01:59 30,2 13,76
19,00 00:33:06 00:01:32 00:01:32 39,1 -8,38
20,00 00:34:33 00:01:26 00:01:27 41,4 -6,64
21,00 00:36:37 00:02:03 00:02:03 29,2 3,92
22,00 00:38:06 00:01:29 00:01:29 40,4 0,82
23,00 00:39:36 00:01:30 00:01:30 39,9 0,00
24,00 00:41:10 00:01:34 00:01:34 38,2 8,24
25,00 00:42:46 00:01:36 00:01:36 37,4 -3,31
26,00 00:44:28 00:01:41 00:01:42 35,3 3,62
27,00 00:46:15 00:01:46 00:01:47 33,7 0,86
28,00 00:47:56 00:01:40 00:01:40 35,9 -0,41
29,00 00:49:57 00:02:01 00:02:01 29,7 6,80
30,00 00:51:52 00:01:55 00:01:56 31,2 -2,49
31,00 00:53:22 00:01:29 00:01:30 40,0 0,78
32,00 00:54:51 00:01:29 00:01:29 40,4 2,64
33,00 00:56:26 00:01:34 00:01:34 38,2 7,10
34,00 00:58:02 00:01:36 00:01:37 37,3 1,32
35,00 00:59:36 00:01:33 00:01:34 38,3 1,46
36,00 01:01:07 00:01:30 00:01:31 39,6 -1,32
37,00 01:02:42 00:01:35 00:01:35 37,8 3,42
38,00 01:04:18 00:01:35 00:01:35 37,7 1,29
39,00 01:05:55 00:01:36 00:01:37 37,1 0,01
40,00 01:07:43 00:01:48 00:01:48 33,3 8,57
40,15 01:08:06 00:00:22 00:02:35 23,2 1,18